sensor_id;sensor_type;location;lat;lon;timestamp;P1;durP1;ratioP1;P2;durP2;ratioP2
21326;SDS011;10822;51.532;6.770;2023-04-06T00:01:36;8.05;;;5.22;;
21326;SDS011;10822;51.532;6.770;2023-04-06T00:04:02;8.13;;;5.53;;
21326;SDS011;10822;51.532;6.770;2023-04-06T00:06:28;10.43;;;5.60;;
21326;SDS011;10822;51.532;6.770;2023-04-06T00:08:55;13.13;;;5.70;;
21326;SDS011;10822;51.532;6.770;2023-04-06T00:11:21;8.60;;;5.63;;
21326;SDS011;10822;51.532;6.770;2023-04-06T00:13:47;8.70;;;5.25;;
21326;SDS011;10822;51.532;6.770;2023-04-06T00:16:13;8.90;;;6.10;;
21326;SDS011;10822;51.532;6.770;2023-04-06T00:18:39;10.27;;;5.88;;
21326;SDS011;10822;51.532;6.770;2023-04-06T00:21:06;9.05;;;5.25;;
21326;SDS011;10822;51.532;6.770;2023-04-06T00:23:32;8.68;;;5.35;;
21326;SDS011;10822;51.532;6.770;2023-04-06T00:25:58;7.68;;;4.63;;
21326;SDS011;10822;51.532;6.770;2023-04-06T00:28:24;8.73;;;5.22;;
21326;SDS011;10822;51.532;6.770;2023-04-06T00:30:51;8.32;;;5.22;;
21326;SDS011;10822;51.532;6.770;2023-04-06T00:33:18;9.20;;;5.57;;
21326;SDS011;10822;51.532;6.770;2023-04-06T00:35:44;10.88;;;5.75;;
21326;SDS011;10822;51.532;6.770;2023-04-06T00:38:10;8.65;;;5.60;;
21326;SDS011;10822;51.532;6.770;2023-04-06T00:40:36;8.38;;;5.32;;
21326;SDS011;10822;51.532;6.770;2023-04-06T00:43:02;7.18;;;5.20;;
21326;SDS011;10822;51.532;6.770;2023-04-06T00:45:28;7.57;;;5.00;;
21326;SDS011;10822;51.532;6.770;2023-04-06T00:47:54;8.90;;;5.32;;
21326;SDS011;10822;51.532;6.770;2023-04-06T00:50:20;8.38;;;5.35;;
21326;SDS011;10822;51.532;6.770;2023-04-06T00:52:46;9.00;;;5.50;;
21326;SDS011;10822;51.532;6.770;2023-04-06T00:55:12;7.50;;;5.15;;
21326;SDS011;10822;51.532;6.770;2023-04-06T00:57:38;8.85;;;5.30;;
21326;SDS011;10822;51.532;6.770;2023-04-06T01:00:04;7.97;;;5.03;;
21326;SDS011;10822;51.532;6.770;2023-04-06T01:02:30;9.98;;;5.68;;
21326;SDS011;10822;51.532;6.770;2023-04-06T01:04:56;9.95;;;5.75;;
21326;SDS011;10822;51.532;6.770;2023-04-06T01:07:22;11.20;;;6.57;;
21326;SDS011;10822;51.532;6.770;2023-04-06T01:09:49;8.52;;;5.05;;
21326;SDS011;10822;51.532;6.770;2023-04-06T01:12:15;7.93;;;5.47;;
21326;SDS011;10822;51.532;6.770;2023-04-06T01:14:41;9.60;;;5.85;;
21326;SDS011;10822;51.532;6.770;2023-04-06T01:17:07;8.82;;;5.95;;
21326;SDS011;10822;51.532;6.770;2023-04-06T01:19:33;8.82;;;5.53;;
21326;SDS011;10822;51.532;6.770;2023-04-06T01:22:00;9.68;;;5.97;;
21326;SDS011;10822;51.532;6.770;2023-04-06T01:24:26;13.75;;;6.15;;
21326;SDS011;10822;51.532;6.770;2023-04-06T01:26:52;11.07;;;6.35;;
21326;SDS011;10822;51.532;6.770;2023-04-06T01:29:18;10.25;;;5.82;;
21326;SDS011;10822;51.532;6.770;2023-04-06T01:31:44;8.77;;;5.80;;
21326;SDS011;10822;51.532;6.770;2023-04-06T01:34:10;9.80;;;6.25;;
21326;SDS011;10822;51.532;6.770;2023-04-06T01:36:36;10.05;;;6.03;;
21326;SDS011;10822;51.532;6.770;2023-04-06T01:39:02;9.35;;;6.80;;
21326;SDS011;10822;51.532;6.770;2023-04-06T01:41:28;10.10;;;6.28;;
21326;SDS011;10822;51.532;6.770;2023-04-06T01:43:54;10.02;;;6.25;;
21326;SDS011;10822;51.532;6.770;2023-04-06T01:46:20;10.65;;;6.50;;
21326;SDS011;10822;51.532;6.770;2023-04-06T01:48:46;10.25;;;5.93;;
21326;SDS011;10822;51.532;6.770;2023-04-06T01:51:12;8.70;;;6.00;;
21326;SDS011;10822;51.532;6.770;2023-04-06T01:53:38;10.40;;;6.65;;
21326;SDS011;10822;51.532;6.770;2023-04-06T01:56:04;10.23;;;6.47;;
21326;SDS011;10822;51.532;6.770;2023-04-06T01:58:30;11.07;;;6.53;;
21326;SDS011;10822;51.532;6.770;2023-04-06T02:00:56;9.85;;;6.60;;
21326;SDS011;10822;51.532;6.770;2023-04-06T02:03:22;10.30;;;6.30;;
21326;SDS011;10822;51.532;6.770;2023-04-06T02:05:48;8.73;;;6.45;;
21326;SDS011;10822;51.532;6.770;2023-04-06T02:08:14;9.68;;;6.05;;
21326;SDS011;10822;51.532;6.770;2023-04-06T02:10:40;9.30;;;6.13;;
21326;SDS011;10822;51.532;6.770;2023-04-06T02:13:06;9.95;;;6.68;;
21326;SDS011;10822;51.532;6.770;2023-04-06T02:15:32;11.40;;;6.43;;
21326;SDS011;10822;51.532;6.770;2023-04-06T02:17:58;12.85;;;6.55;;
21326;SDS011;10822;51.532;6.770;2023-04-06T02:20:25;10.68;;;6.35;;
21326;SDS011;10822;51.532;6.770;2023-04-06T02:22:51;11.95;;;7.05;;
21326;SDS011;10822;51.532;6.770;2023-04-06T02:25:16;11.27;;;7.20;;
21326;SDS011;10822;51.532;6.770;2023-04-06T02:27:42;12.73;;;7.35;;
21326;SDS011;10822;51.532;6.770;2023-04-06T02:30:09;12.55;;;7.35;;
21326;SDS011;10822;51.532;6.770;2023-04-06T02:32:35;12.13;;;7.30;;
21326;SDS011;10822;51.532;6.770;2023-04-06T02:35:01;12.70;;;7.32;;
21326;SDS011;10822;51.532;6.770;2023-04-06T02:37:27;12.50;;;7.30;;
21326;SDS011;10822;51.532;6.770;2023-04-06T02:39:53;12.73;;;7.57;;
21326;SDS011;10822;51.532;6.770;2023-04-06T02:42:20;12.10;;;7.72;;
21326;SDS011;10822;51.532;6.770;2023-04-06T02:44:46;15.35;;;8.15;;
21326;SDS011;10822;51.532;6.770;2023-04-06T02:47:12;10.18;;;7.07;;
21326;SDS011;10822;51.532;6.770;2023-04-06T02:49:38;11.77;;;7.05;;
21326;SDS011;10822;51.532;6.770;2023-04-06T02:52:04;10.40;;;6.70;;
21326;SDS011;10822;51.532;6.770;2023-04-06T02:54:30;12.70;;;7.95;;
21326;SDS011;10822;51.532;6.770;2023-04-06T02:56:56;10.35;;;6.65;;
21326;SDS011;10822;51.532;6.770;2023-04-06T02:59:22;11.00;;;7.22;;
21326;SDS011;10822;51.532;6.770;2023-04-06T03:01:48;10.90;;;7.38;;
21326;SDS011;10822;51.532;6.770;2023-04-06T03:04:14;12.15;;;7.20;;
21326;SDS011;10822;51.532;6.770;2023-04-06T03:06:40;11.52;;;7.00;;
21326;SDS011;10822;51.532;6.770;2023-04-06T03:09:06;10.65;;;6.65;;
21326;SDS011;10822;51.532;6.770;2023-04-06T03:11:32;12.98;;;7.80;;
21326;SDS011;10822;51.532;6.770;2023-04-06T03:13:58;11.02;;;7.30;;
21326;SDS011;10822;51.532;6.770;2023-04-06T03:16:24;11.35;;;7.28;;
21326;SDS011;10822;51.532;6.770;2023-04-06T03:18:50;14.48;;;8.20;;
21326;SDS011;10822;51.532;6.770;2023-04-06T03:21:16;10.27;;;6.55;;
21326;SDS011;10822;51.532;6.770;2023-04-06T03:23:42;13.88;;;7.70;;
21326;SDS011;10822;51.532;6.770;2023-04-06T03:26:08;14.05;;;8.43;;
21326;SDS011;10822;51.532;6.770;2023-04-06T03:28:34;16.90;;;10.35;;
21326;SDS011;10822;51.532;6.770;2023-04-06T03:31:00;16.70;;;9.95;;
21326;SDS011;10822;51.532;6.770;2023-04-06T03:33:26;20.88;;;12.45;;
21326;SDS011;10822;51.532;6.770;2023-04-06T03:35:52;20.70;;;12.05;;
21326;SDS011;10822;51.532;6.770;2023-04-06T03:38:18;16.65;;;9.35;;
21326;SDS011;10822;51.532;6.770;2023-04-06T03:40:45;16.55;;;8.75;;
21326;SDS011;10822;51.532;6.770;2023-04-06T03:43:11;15.88;;;7.95;;
21326;SDS011;10822;51.532;6.770;2023-04-06T03:45:37;13.88;;;7.97;;
21326;SDS011;10822;51.532;6.770;2023-04-06T03:48:03;13.27;;;7.75;;
21326;SDS011;10822;51.532;6.770;2023-04-06T03:50:29;11.38;;;7.07;;
21326;SDS011;10822;51.532;6.770;2023-04-06T03:52:55;13.23;;;7.90;;
21326;SDS011;10822;51.532;6.770;2023-04-06T03:55:21;14.15;;;8.70;;
21326;SDS011;10822;51.532;6.770;2023-04-06T03:57:47;14.20;;;8.18;;
21326;SDS011;10822;51.532;6.770;2023-04-06T04:00:13;12.30;;;8.38;;
21326;SDS011;10822;51.532;6.770;2023-04-06T04:02:39;16.45;;;8.80;;
21326;SDS011;10822;51.532;6.770;2023-04-06T04:05:05;12.05;;;8.05;;
21326;SDS011;10822;51.532;6.770;2023-04-06T04:07:31;14.43;;;8.80;;
21326;SDS011;10822;51.532;6.770;2023-04-06T04:09:57;14.75;;;8.55;;
21326;SDS011;10822;51.532;6.770;2023-04-06T04:12:23;12.27;;;8.00;;
21326;SDS011;10822;51.532;6.770;2023-04-06T04:14:49;16.80;;;8.88;;
21326;SDS011;10822;51.532;6.770;2023-04-06T04:17:16;13.95;;;8.48;;
21326;SDS011;10822;51.532;6.770;2023-04-06T04:19:42;14.43;;;8.48;;
21326;SDS011;10822;51.532;6.770;2023-04-06T04:22:08;12.70;;;8.35;;
21326;SDS011;10822;51.532;6.770;2023-04-06T04:24:33;13.98;;;8.50;;
21326;SDS011;10822;51.532;6.770;2023-04-06T04:27:00;13.32;;;8.27;;
21326;SDS011;10822;51.532;6.770;2023-04-06T04:29:26;14.35;;;8.68;;
21326;SDS011;10822;51.532;6.770;2023-04-06T04:31:52;14.77;;;8.52;;
21326;SDS011;10822;51.532;6.770;2023-04-06T04:34:18;15.18;;;8.65;;
21326;SDS011;10822;51.532;6.770;2023-04-06T04:36:45;16.77;;;8.55;;
21326;SDS011;10822;51.532;6.770;2023-04-06T04:39:11;14.05;;;8.23;;
21326;SDS011;10822;51.532;6.770;2023-04-06T04:41:37;14.63;;;9.38;;
21326;SDS011;10822;51.532;6.770;2023-04-06T04:44:03;14.35;;;8.70;;
21326;SDS011;10822;51.532;6.770;2023-04-06T04:46:29;11.10;;;7.70;;
21326;SDS011;10822;51.532;6.770;2023-04-06T04:48:55;14.93;;;8.98;;
21326;SDS011;10822;51.532;6.770;2023-04-06T04:51:21;16.83;;;9.52;;
21326;SDS011;10822;51.532;6.770;2023-04-06T04:53:49;18.27;;;9.70;;
21326;SDS011;10822;51.532;6.770;2023-04-06T04:56:15;15.32;;;8.85;;
21326;SDS011;10822;51.532;6.770;2023-04-06T04:58:41;15.60;;;9.13;;
21326;SDS011;10822;51.532;6.770;2023-04-06T05:01:07;14.90;;;8.98;;
21326;SDS011;10822;51.532;6.770;2023-04-06T05:03:33;17.88;;;9.90;;
21326;SDS011;10822;51.532;6.770;2023-04-06T05:06:00;16.95;;;10.10;;
21326;SDS011;10822;51.532;6.770;2023-04-06T05:08:26;16.30;;;10.00;;
21326;SDS011;10822;51.532;6.770;2023-04-06T05:10:52;16.30;;;9.50;;
21326;SDS011;10822;51.532;6.770;2023-04-06T05:13:18;18.80;;;10.38;;
21326;SDS011;10822;51.532;6.770;2023-04-06T05:15:44;17.10;;;10.43;;
21326;SDS011;10822;51.532;6.770;2023-04-06T05:18:10;18.88;;;10.30;;
21326;SDS011;10822;51.532;6.770;2023-04-06T05:20:37;17.38;;;9.80;;
21326;SDS011;10822;51.532;6.770;2023-04-06T05:23:03;16.30;;;9.85;;
21326;SDS011;10822;51.532;6.770;2023-04-06T05:25:29;16.98;;;10.32;;
21326;SDS011;10822;51.532;6.770;2023-04-06T05:27:55;20.02;;;10.70;;
21326;SDS011;10822;51.532;6.770;2023-04-06T05:30:21;16.73;;;9.82;;
21326;SDS011;10822;51.532;6.770;2023-04-06T05:32:47;19.45;;;10.32;;
21326;SDS011;10822;51.532;6.770;2023-04-06T05:35:13;17.13;;;9.43;;
21326;SDS011;10822;51.532;6.770;2023-04-06T05:37:40;18.83;;;10.15;;
21326;SDS011;10822;51.532;6.770;2023-04-06T05:40:06;16.42;;;10.45;;
21326;SDS011;10822;51.532;6.770;2023-04-06T05:42:38;18.42;;;10.40;;
21326;SDS011;10822;51.532;6.770;2023-04-06T05:45:06;15.73;;;9.50;;
21326;SDS011;10822;51.532;6.770;2023-04-06T05:47:32;18.02;;;10.23;;
21326;SDS011;10822;51.532;6.770;2023-04-06T05:49:58;15.60;;;9.82;;
21326;SDS011;10822;51.532;6.770;2023-04-06T05:52:24;16.88;;;9.60;;
21326;SDS011;10822;51.532;6.770;2023-04-06T05:54:50;15.40;;;9.32;;
21326;SDS011;10822;51.532;6.770;2023-04-06T05:57:16;16.35;;;9.57;;
21326;SDS011;10822;51.532;6.770;2023-04-06T05:59:42;18.27;;;9.70;;
21326;SDS011;10822;51.532;6.770;2023-04-06T06:02:08;17.13;;;9.07;;
21326;SDS011;10822;51.532;6.770;2023-04-06T06:04:34;15.00;;;9.85;;
21326;SDS011;10822;51.532;6.770;2023-04-06T06:07:00;15.13;;;9.05;;
21326;SDS011;10822;51.532;6.770;2023-04-06T06:09:26;17.67;;;9.90;;
21326;SDS011;10822;51.532;6.770;2023-04-06T06:11:52;14.75;;;9.32;;
21326;SDS011;10822;51.532;6.770;2023-04-06T06:14:18;14.93;;;9.23;;
21326;SDS011;10822;51.532;6.770;2023-04-06T06:16:44;14.43;;;9.63;;
21326;SDS011;10822;51.532;6.770;2023-04-06T06:19:10;14.18;;;9.02;;
21326;SDS011;10822;51.532;6.770;2023-04-06T06:21:36;13.85;;;8.25;;
21326;SDS011;10822;51.532;6.770;2023-04-06T06:24:02;11.85;;;7.63;;
21326;SDS011;10822;51.532;6.770;2023-04-06T06:26:28;16.50;;;8.75;;
21326;SDS011;10822;51.532;6.770;2023-04-06T06:28:54;13.25;;;8.27;;
21326;SDS011;10822;51.532;6.770;2023-04-06T06:31:20;13.32;;;7.97;;
21326;SDS011;10822;51.532;6.770;2023-04-06T06:33:47;12.68;;;8.23;;
21326;SDS011;10822;51.532;6.770;2023-04-06T06:36:16;21.13;;;8.55;;
21326;SDS011;10822;51.532;6.770;2023-04-06T06:38:42;10.52;;;7.25;;
21326;SDS011;10822;51.532;6.770;2023-04-06T06:41:08;11.55;;;7.18;;
21326;SDS011;10822;51.532;6.770;2023-04-06T06:43:34;13.35;;;7.88;;
21326;SDS011;10822;51.532;6.770;2023-04-06T06:46:00;12.88;;;7.20;;
21326;SDS011;10822;51.532;6.770;2023-04-06T06:48:26;11.98;;;7.10;;
21326;SDS011;10822;51.532;6.770;2023-04-06T06:50:52;14.98;;;7.10;;
21326;SDS011;10822;51.532;6.770;2023-04-06T06:53:18;11.75;;;7.63;;
21326;SDS011;10822;51.532;6.770;2023-04-06T06:55:45;11.73;;;7.35;;
21326;SDS011;10822;51.532;6.770;2023-04-06T06:58:11;13.20;;;7.20;;
21326;SDS011;10822;51.532;6.770;2023-04-06T07:00:37;12.75;;;7.05;;
21326;SDS011;10822;51.532;6.770;2023-04-06T07:03:03;11.90;;;7.15;;
21326;SDS011;10822;51.532;6.770;2023-04-06T07:05:29;11.50;;;7.68;;
21326;SDS011;10822;51.532;6.770;2023-04-06T07:07:55;11.30;;;7.50;;
21326;SDS011;10822;51.532;6.770;2023-04-06T07:10:21;11.18;;;7.25;;
21326;SDS011;10822;51.532;6.770;2023-04-06T07:12:47;14.38;;;7.10;;
21326;SDS011;10822;51.532;6.770;2023-04-06T07:15:13;11.75;;;7.05;;
21326;SDS011;10822;51.532;6.770;2023-04-06T07:17:39;14.82;;;6.88;;
21326;SDS011;10822;51.532;6.770;2023-04-06T07:20:06;13.00;;;7.30;;
21326;SDS011;10822;51.532;6.770;2023-04-06T07:22:32;12.07;;;7.22;;
21326;SDS011;10822;51.532;6.770;2023-04-06T07:24:58;11.45;;;6.90;;
21326;SDS011;10822;51.532;6.770;2023-04-06T07:27:24;10.10;;;6.70;;
21326;SDS011;10822;51.532;6.770;2023-04-06T07:29:50;12.00;;;7.40;;
21326;SDS011;10822;51.532;6.770;2023-04-06T07:32:16;13.63;;;8.10;;
21326;SDS011;10822;51.532;6.770;2023-04-06T07:34:42;11.50;;;7.55;;
21326;SDS011;10822;51.532;6.770;2023-04-06T07:37:10;13.02;;;7.43;;
21326;SDS011;10822;51.532;6.770;2023-04-06T07:39:36;13.20;;;7.60;;
21326;SDS011;10822;51.532;6.770;2023-04-06T07:42:02;11.43;;;7.18;;
21326;SDS011;10822;51.532;6.770;2023-04-06T07:44:28;12.52;;;7.63;;
21326;SDS011;10822;51.532;6.770;2023-04-06T07:46:54;11.05;;;7.57;;
21326;SDS011;10822;51.532;6.770;2023-04-06T07:49:20;10.98;;;7.30;;
21326;SDS011;10822;51.532;6.770;2023-04-06T07:51:46;13.32;;;7.53;;
21326;SDS011;10822;51.532;6.770;2023-04-06T07:54:12;12.05;;;7.43;;
21326;SDS011;10822;51.532;6.770;2023-04-06T07:56:38;11.73;;;7.57;;
21326;SDS011;10822;51.532;6.770;2023-04-06T07:59:04;13.23;;;8.07;;
21326;SDS011;10822;51.532;6.770;2023-04-06T08:01:30;13.38;;;7.88;;
21326;SDS011;10822;51.532;6.770;2023-04-06T08:03:56;12.88;;;7.88;;
21326;SDS011;10822;51.532;6.770;2023-04-06T08:06:22;14.65;;;7.95;;
21326;SDS011;10822;51.532;6.770;2023-04-06T08:08:49;12.68;;;7.63;;
21326;SDS011;10822;51.532;6.770;2023-04-06T08:11:15;12.77;;;7.88;;
21326;SDS011;10822;51.532;6.770;2023-04-06T08:13:41;13.38;;;8.00;;
21326;SDS011;10822;51.532;6.770;2023-04-06T08:16:07;11.40;;;7.72;;
21326;SDS011;10822;51.532;6.770;2023-04-06T08:18:33;11.30;;;7.85;;
21326;SDS011;10822;51.532;6.770;2023-04-06T08:20:58;13.30;;;7.93;;
21326;SDS011;10822;51.532;6.770;2023-04-06T08:23:24;11.15;;;7.57;;
21326;SDS011;10822;51.532;6.770;2023-04-06T08:25:50;14.63;;;8.02;;
21326;SDS011;10822;51.532;6.770;2023-04-06T08:28:19;12.13;;;7.93;;
21326;SDS011;10822;51.532;6.770;2023-04-06T08:30:45;14.95;;;8.10;;
21326;SDS011;10822;51.532;6.770;2023-04-06T08:33:11;14.88;;;7.63;;
21326;SDS011;10822;51.532;6.770;2023-04-06T08:35:37;12.10;;;7.82;;
21326;SDS011;10822;51.532;6.770;2023-04-06T08:38:03;15.63;;;8.38;;
21326;SDS011;10822;51.532;6.770;2023-04-06T08:40:29;13.73;;;8.18;;
21326;SDS011;10822;51.532;6.770;2023-04-06T08:42:55;11.68;;;7.68;;
21326;SDS011;10822;51.532;6.770;2023-04-06T08:45:22;12.85;;;8.02;;
21326;SDS011;10822;51.532;6.770;2023-04-06T08:47:49;12.90;;;8.35;;
21326;SDS011;10822;51.532;6.770;2023-04-06T08:50:16;15.63;;;8.85;;
21326;SDS011;10822;51.532;6.770;2023-04-06T08:52:43;14.10;;;8.85;;
21326;SDS011;10822;51.532;6.770;2023-04-06T08:55:09;13.93;;;8.93;;
21326;SDS011;10822;51.532;6.770;2023-04-06T08:57:35;13.63;;;8.65;;
21326;SDS011;10822;51.532;6.770;2023-04-06T09:00:02;16.73;;;8.65;;
21326;SDS011;10822;51.532;6.770;2023-04-06T09:02:28;15.15;;;8.73;;
21326;SDS011;10822;51.532;6.770;2023-04-06T09:04:54;16.70;;;8.68;;
21326;SDS011;10822;51.532;6.770;2023-04-06T09:07:20;15.23;;;8.93;;
21326;SDS011;10822;51.532;6.770;2023-04-06T09:09:46;15.65;;;8.98;;
21326;SDS011;10822;51.532;6.770;2023-04-06T09:12:22;13.18;;;9.23;;
21326;SDS011;10822;51.532;6.770;2023-04-06T09:14:49;14.60;;;9.25;;
21326;SDS011;10822;51.532;6.770;2023-04-06T09:17:25;16.35;;;9.15;;
21326;SDS011;10822;51.532;6.770;2023-04-06T09:19:51;16.13;;;9.23;;
21326;SDS011;10822;51.532;6.770;2023-04-06T09:22:17;13.38;;;9.02;;
21326;SDS011;10822;51.532;6.770;2023-04-06T09:24:44;16.15;;;9.50;;
21326;SDS011;10822;51.532;6.770;2023-04-06T09:27:11;15.40;;;9.30;;
21326;SDS011;10822;51.532;6.770;2023-04-06T09:29:37;17.35;;;10.02;;
21326;SDS011;10822;51.532;6.770;2023-04-06T09:32:03;15.52;;;10.23;;
21326;SDS011;10822;51.532;6.770;2023-04-06T09:34:29;17.02;;;9.57;;
21326;SDS011;10822;51.532;6.770;2023-04-06T09:36:55;17.65;;;10.30;;
21326;SDS011;10822;51.532;6.770;2023-04-06T09:39:21;17.27;;;10.10;;
21326;SDS011;10822;51.532;6.770;2023-04-06T09:41:51;16.50;;;10.32;;
21326;SDS011;10822;51.532;6.770;2023-04-06T09:44:17;15.77;;;10.05;;
21326;SDS011;10822;51.532;6.770;2023-04-06T09:46:45;16.40;;;10.43;;
21326;SDS011;10822;51.532;6.770;2023-04-06T09:49:11;16.27;;;10.43;;
21326;SDS011;10822;51.532;6.770;2023-04-06T09:51:38;18.05;;;10.25;;
21326;SDS011;10822;51.532;6.770;2023-04-06T09:54:05;18.02;;;10.25;;
21326;SDS011;10822;51.532;6.770;2023-04-06T09:56:37;16.73;;;9.27;;
21326;SDS011;10822;51.532;6.770;2023-04-06T09:59:07;16.35;;;9.82;;
21326;SDS011;10822;51.532;6.770;2023-04-06T10:01:34;18.08;;;10.00;;
21326;SDS011;10822;51.532;6.770;2023-04-06T10:06:42;16.63;;;9.85;;
21326;SDS011;10822;51.532;6.770;2023-04-06T10:09:09;17.73;;;9.70;;
21326;SDS011;10822;51.532;6.770;2023-04-06T10:11:36;17.00;;;10.25;;
21326;SDS011;10822;51.532;6.770;2023-04-06T10:14:02;15.63;;;9.80;;
21326;SDS011;10822;51.532;6.770;2023-04-06T10:16:28;15.70;;;10.55;;
21326;SDS011;10822;51.532;6.770;2023-04-06T10:18:56;16.75;;;10.77;;
21326;SDS011;10822;51.532;6.770;2023-04-06T10:21:24;15.02;;;9.75;;
21326;SDS011;10822;51.532;6.770;2023-04-06T10:23:52;15.98;;;10.40;;
21326;SDS011;10822;51.532;6.770;2023-04-06T10:26:20;17.33;;;10.32;;
21326;SDS011;10822;51.532;6.770;2023-04-06T10:28:46;13.80;;;9.27;;
21326;SDS011;10822;51.532;6.770;2023-04-06T10:31:13;16.83;;;10.45;;
21326;SDS011;10822;51.532;6.770;2023-04-06T10:33:39;18.05;;;12.07;;
21326;SDS011;10822;51.532;6.770;2023-04-06T10:38:38;18.65;;;11.00;;
21326;SDS011;10822;51.532;6.770;2023-04-06T10:41:04;16.15;;;10.25;;
21326;SDS011;10822;51.532;6.770;2023-04-06T10:43:35;18.70;;;11.20;;
21326;SDS011;10822;51.532;6.770;2023-04-06T10:46:01;19.00;;;11.05;;
21326;SDS011;10822;51.532;6.770;2023-04-06T10:51:06;21.08;;;12.02;;
21326;SDS011;10822;51.532;6.770;2023-04-06T10:53:33;18.95;;;11.60;;
21326;SDS011;10822;51.532;6.770;2023-04-06T10:55:59;20.73;;;12.73;;
21326;SDS011;10822;51.532;6.770;2023-04-06T10:58:25;19.10;;;11.70;;
21326;SDS011;10822;51.532;6.770;2023-04-06T11:00:53;19.10;;;10.40;;
21326;SDS011;10822;51.532;6.770;2023-04-06T11:03:20;16.23;;;10.48;;
21326;SDS011;10822;51.532;6.770;2023-04-06T11:05:46;18.00;;;10.38;;
21326;SDS011;10822;51.532;6.770;2023-04-06T11:08:25;16.63;;;10.40;;
21326;SDS011;10822;51.532;6.770;2023-04-06T11:10:51;16.83;;;10.13;;
21326;SDS011;10822;51.532;6.770;2023-04-06T11:13:17;19.08;;;10.93;;
21326;SDS011;10822;51.532;6.770;2023-04-06T11:15:43;21.15;;;11.35;;
21326;SDS011;10822;51.532;6.770;2023-04-06T11:18:10;20.75;;;10.95;;
21326;SDS011;10822;51.532;6.770;2023-04-06T11:20:36;19.73;;;10.82;;
21326;SDS011;10822;51.532;6.770;2023-04-06T11:23:02;21.80;;;11.57;;
21326;SDS011;10822;51.532;6.770;2023-04-06T11:25:28;20.23;;;10.88;;
21326;SDS011;10822;51.532;6.770;2023-04-06T11:27:57;20.38;;;11.15;;
21326;SDS011;10822;51.532;6.770;2023-04-06T11:30:23;18.13;;;10.68;;
21326;SDS011;10822;51.532;6.770;2023-04-06T11:32:49;19.98;;;11.27;;
21326;SDS011;10822;51.532;6.770;2023-04-06T11:35:22;20.40;;;11.38;;
21326;SDS011;10822;51.532;6.770;2023-04-06T11:37:48;21.65;;;11.05;;
21326;SDS011;10822;51.532;6.770;2023-04-06T11:40:15;20.85;;;11.60;;
21326;SDS011;10822;51.532;6.770;2023-04-06T11:42:41;21.63;;;11.07;;
21326;SDS011;10822;51.532;6.770;2023-04-06T11:45:07;18.25;;;10.63;;
21326;SDS011;10822;51.532;6.770;2023-04-06T11:47:34;20.13;;;11.18;;
21326;SDS011;10822;51.532;6.770;2023-04-06T11:50:07;19.60;;;10.98;;
21326;SDS011;10822;51.532;6.770;2023-04-06T11:52:34;19.67;;;11.18;;
21326;SDS011;10822;51.532;6.770;2023-04-06T11:55:09;19.70;;;11.45;;
21326;SDS011;10822;51.532;6.770;2023-04-06T11:57:36;22.27;;;11.73;;
21326;SDS011;10822;51.532;6.770;2023-04-06T12:00:02;20.63;;;12.18;;
21326;SDS011;10822;51.532;6.770;2023-04-06T12:02:29;19.75;;;11.02;;
21326;SDS011;10822;51.532;6.770;2023-04-06T12:04:57;20.67;;;11.45;;
21326;SDS011;10822;51.532;6.770;2023-04-06T12:07:23;20.30;;;12.38;;
21326;SDS011;10822;51.532;6.770;2023-04-06T12:09:49;18.98;;;11.23;;
21326;SDS011;10822;51.532;6.770;2023-04-06T12:12:15;19.33;;;11.85;;
21326;SDS011;10822;51.532;6.770;2023-04-06T12:14:41;23.73;;;12.50;;
21326;SDS011;10822;51.532;6.770;2023-04-06T12:17:07;21.08;;;12.23;;
21326;SDS011;10822;51.532;6.770;2023-04-06T12:19:33;20.10;;;11.68;;
21326;SDS011;10822;51.532;6.770;2023-04-06T12:21:59;18.63;;;11.68;;
21326;SDS011;10822;51.532;6.770;2023-04-06T12:24:25;18.15;;;11.13;;
21326;SDS011;10822;51.532;6.770;2023-04-06T12:26:51;17.55;;;10.85;;
21326;SDS011;10822;51.532;6.770;2023-04-06T12:29:17;20.20;;;11.63;;
21326;SDS011;10822;51.532;6.770;2023-04-06T12:31:42;22.88;;;11.02;;
21326;SDS011;10822;51.532;6.770;2023-04-06T12:34:09;19.98;;;11.13;;
21326;SDS011;10822;51.532;6.770;2023-04-06T12:36:36;21.25;;;11.23;;
21326;SDS011;10822;51.532;6.770;2023-04-06T12:39:02;18.02;;;10.13;;
21326;SDS011;10822;51.532;6.770;2023-04-06T12:41:28;20.58;;;11.52;;
21326;SDS011;10822;51.532;6.770;2023-04-06T12:43:55;20.80;;;11.88;;
21326;SDS011;10822;51.532;6.770;2023-04-06T12:46:21;17.02;;;11.05;;
21326;SDS011;10822;51.532;6.770;2023-04-06T12:48:47;20.88;;;11.32;;
21326;SDS011;10822;51.532;6.770;2023-04-06T12:51:13;17.73;;;10.80;;
21326;SDS011;10822;51.532;6.770;2023-04-06T12:53:40;18.55;;;11.07;;
21326;SDS011;10822;51.532;6.770;2023-04-06T12:56:16;18.83;;;10.25;;
21326;SDS011;10822;51.532;6.770;2023-04-06T12:58:42;15.50;;;9.82;;
21326;SDS011;10822;51.532;6.770;2023-04-06T13:01:08;14.93;;;8.88;;
21326;SDS011;10822;51.532;6.770;2023-04-06T13:03:35;15.68;;;9.13;;
21326;SDS011;10822;51.532;6.770;2023-04-06T13:06:01;13.57;;;7.65;;
21326;SDS011;10822;51.532;6.770;2023-04-06T13:08:27;14.48;;;8.02;;
21326;SDS011;10822;51.532;6.770;2023-04-06T13:10:53;14.50;;;8.07;;
21326;SDS011;10822;51.532;6.770;2023-04-06T13:13:24;13.05;;;8.40;;
21326;SDS011;10822;51.532;6.770;2023-04-06T13:15:50;13.70;;;8.40;;
21326;SDS011;10822;51.532;6.770;2023-04-06T13:18:16;12.48;;;8.68;;
21326;SDS011;10822;51.532;6.770;2023-04-06T13:20:42;12.25;;;7.30;;
21326;SDS011;10822;51.532;6.770;2023-04-06T13:23:08;12.23;;;7.53;;
21326;SDS011;10822;51.532;6.770;2023-04-06T13:25:35;12.75;;;7.22;;
21326;SDS011;10822;51.532;6.770;2023-04-06T13:28:01;9.55;;;6.30;;
21326;SDS011;10822;51.532;6.770;2023-04-06T13:30:27;11.15;;;6.97;;
21326;SDS011;10822;51.532;6.770;2023-04-06T13:32:53;11.38;;;7.03;;
21326;SDS011;10822;51.532;6.770;2023-04-06T13:35:19;10.15;;;6.05;;
21326;SDS011;10822;51.532;6.770;2023-04-06T13:37:45;12.55;;;6.35;;
21326;SDS011;10822;51.532;6.770;2023-04-06T13:40:11;11.27;;;6.40;;
21326;SDS011;10822;51.532;6.770;2023-04-06T13:42:37;9.15;;;6.18;;
21326;SDS011;10822;51.532;6.770;2023-04-06T13:45:05;10.35;;;6.00;;
21326;SDS011;10822;51.532;6.770;2023-04-06T13:47:31;8.32;;;5.47;;
21326;SDS011;10822;51.532;6.770;2023-04-06T13:49:57;11.18;;;5.78;;
21326;SDS011;10822;51.532;6.770;2023-04-06T13:52:23;7.82;;;5.63;;
21326;SDS011;10822;51.532;6.770;2023-04-06T13:54:50;7.82;;;5.35;;
21326;SDS011;10822;51.532;6.770;2023-04-06T13:57:16;7.55;;;5.13;;
21326;SDS011;10822;51.532;6.770;2023-04-06T13:59:42;7.93;;;5.63;;
21326;SDS011;10822;51.532;6.770;2023-04-06T14:02:09;9.70;;;6.00;;
21326;SDS011;10822;51.532;6.770;2023-04-06T14:04:35;8.10;;;5.47;;
21326;SDS011;10822;51.532;6.770;2023-04-06T14:07:01;11.52;;;6.22;;
21326;SDS011;10822;51.532;6.770;2023-04-06T14:09:28;9.98;;;6.25;;
21326;SDS011;10822;51.532;6.770;2023-04-06T14:11:54;13.60;;;7.18;;
21326;SDS011;10822;51.532;6.770;2023-04-06T14:14:20;9.73;;;6.53;;
21326;SDS011;10822;51.532;6.770;2023-04-06T14:16:46;12.95;;;7.13;;
21326;SDS011;10822;51.532;6.770;2023-04-06T14:19:15;11.13;;;7.15;;
21326;SDS011;10822;51.532;6.770;2023-04-06T14:21:46;13.07;;;7.22;;
21326;SDS011;10822;51.532;6.770;2023-04-06T14:24:12;10.45;;;7.13;;
21326;SDS011;10822;51.532;6.770;2023-04-06T14:26:39;12.40;;;7.53;;
21326;SDS011;10822;51.532;6.770;2023-04-06T14:29:06;13.15;;;7.40;;
21326;SDS011;10822;51.532;6.770;2023-04-06T14:31:35;11.52;;;7.28;;
21326;SDS011;10822;51.532;6.770;2023-04-06T14:34:02;11.48;;;7.82;;
21326;SDS011;10822;51.532;6.770;2023-04-06T14:36:28;20.75;;;14.38;;